Time;durP1;ratioP1;P1;durP2;ratioP2;P2;SDS_P1;SDS_P2;PMS_P1;PMS_P2;Temp;Humidity;BMP_temperature;BMP_pressure;BME280_temperature;BME280_humidity;BME280_pressure;Samples;Min_cycle;Max_cycle;Signal;HPM_P1;HPM_P2
2022/04/20 00:00:23;;;;;;;6.43;2.40;;;;;;;12.38;34.33;101077.75;5033583;28;20085;-70
2022/04/20 00:02:50;;;;;;;5.75;2.40;;;;;;;12.50;34.11;101080.13;5032742;28;20506;-71
2022/04/20 00:05:16;;;;;;;5.38;2.50;;;;;;;12.26;34.34;101084.41;5033324;28;20132;-70
2022/04/20 00:07:43;;;;;;;8.98;3.00;;;;;;;12.45;34.29;101080.59;5032260;28;20080;-70
2022/04/20 00:10:09;;;;;;;6.30;2.75;;;;;;;12.14;34.95;101094.63;5032219;28;20494;-71
2022/04/20 00:12:36;;;;;;;5.65;2.78;;;;;;;12.23;34.75;101089.28;5033234;28;20045;-70
2022/04/20 00:15:03;;;;;;;9.68;2.85;;;;;;;11.72;35.80;101096.41;5033338;28;20046;-70
2022/04/20 00:17:29;;;;;;;6.68;2.90;;;;;;;11.46;36.33;101097.22;5034531;28;20478;-71
2022/04/20 00:19:55;;;;;;;12.00;2.67;;;;;;;11.83;35.88;101090.75;5032885;28;20136;-71
2022/04/20 00:22:22;;;;;;;5.13;2.72;;;;;;;11.87;35.80;101095.66;5027659;28;20439;-70
2022/04/20 00:24:48;;;;;;;16.75;4.20;;;;;;;11.49;36.71;101096.06;5031457;28;20046;-70
2022/04/20 00:27:15;;;;;;;6.78;2.88;;;;;;;11.38;36.99;101094.47;5032451;28;20162;-72
2022/04/20 00:29:41;;;;;;;8.93;2.30;;;;;;;11.59;36.73;101088.75;5031807;28;20096;-71
2022/04/20 00:32:08;;;;;;;9.77;2.70;;;;;;;11.71;36.45;101087.50;5031593;28;20055;-71
2022/04/20 00:34:34;;;;;;;13.75;2.90;;;;;;;12.07;35.85;101090.91;5032380;28;20041;-71
2022/04/20 00:37:01;;;;;;;8.88;2.75;;;;;;;11.79;36.39;101092.91;5031616;28;20065;-71
2022/04/20 00:39:27;;;;;;;8.18;2.83;;;;;;;11.82;36.44;101092.59;5031156;28;20099;-71
2022/04/20 00:41:54;;;;;;;8.75;2.92;;;;;;;12.06;35.57;101093.72;5032501;28;20137;-71
2022/04/20 00:44:21;;;;;;;7.45;2.70;;;;;;;11.79;36.40;101092.91;5031487;28;20053;-70
2022/04/20 00:46:48;;;;;;;9.57;3.15;;;;;;;11.71;36.71;101097.41;5032876;28;20069;-71
2022/04/20 00:49:15;;;;;;;6.60;2.70;;;;;;;11.44;37.21;101089.28;5031056;28;20046;-69
2022/04/20 00:52:09;;;;;;;6.28;2.80;;;;;;;11.86;36.48;101083.25;5031459;28;20548;-71
2022/04/20 00:54:35;;;;;;;6.72;2.90;;;;;;;11.52;37.16;101095.72;5011167;28;20569;-71
2022/04/20 00:57:03;;;;;;;8.23;2.65;;;;;;;11.74;36.93;101097.94;5021860;28;20053;-71
2022/04/20 00:59:30;;;;;;;8.45;3.17;;;;;;;11.74;37.10;101099.78;5031670;28;20136;-72
2022/04/20 01:01:58;;;;;;;9.88;3.10;;;;;;;10.98;38.44;101102.03;5030662;28;20045;-72
2022/04/20 01:04:25;;;;;;;11.15;3.05;;;;;;;11.01;38.59;101098.19;5030494;28;20498;-72
2022/04/20 01:07:22;;;;;;;10.05;3.15;;;;;;;11.32;38.01;101089.72;5032846;28;20064;-72
2022/04/20 01:09:49;;;;;;;9.65;3.38;;;;;;;11.65;37.43;101096.16;5024416;28;20512;-72
2022/04/20 01:12:17;;;;;;;8.05;3.15;;;;;;;11.49;37.89;101104.13;5031378;28;20160;-72
2022/04/20 01:14:44;;;;;;;8.50;3.50;;;;;;;11.51;37.65;101100.25;5031462;28;20053;-72
2022/04/20 01:17:10;;;;;;;7.88;3.15;;;;;;;11.28;38.24;101093.72;5031332;28;20041;-72
2022/04/20 01:19:38;;;;;;;7.43;3.38;;;;;;;11.31;38.02;101099.63;5019482;28;20080;-72
2022/04/20 01:22:06;;;;;;;8.30;2.97;;;;;;;11.61;37.59;101098.31;5029709;28;20095;-72
2022/04/20 01:24:34;;;;;;;11.23;3.20;;;;;;;11.49;38.01;101096.06;5030122;28;20053;-72
2022/04/20 01:27:01;;;;;;;10.38;3.10;;;;;;;11.69;37.51;101097.59;5029086;28;20502;-72
2022/04/20 01:29:28;;;;;;;10.23;3.45;;;;;;;11.71;37.62;101090.19;5032217;28;20446;-72
2022/04/20 01:31:56;;;;;;;11.02;3.25;;;;;;;11.69;37.60;101089.53;5031333;28;20144;-72
2022/04/20 01:34:22;;;;;;;10.50;3.63;;;;;;;11.95;37.11;101086.78;5031015;28;20095;-72
2022/04/20 01:36:50;;;;;;;8.00;3.55;;;;;;;11.92;37.17;101085.25;5030676;28;20052;-72
2022/04/20 01:39:16;;;;;;;9.70;3.50;;;;;;;12.08;36.97;101080.97;5030862;28;20084;-72
2022/04/20 01:41:43;;;;;;;9.05;3.05;;;;;;;11.64;37.78;101083.72;5030130;28;20037;-72
2022/04/20 01:44:10;;;;;;;8.95;3.63;;;;;;;11.56;37.95;101081.84;5029890;28;20103;-72
2022/04/20 01:46:37;;;;;;;11.07;3.85;;;;;;;11.71;37.82;101086.66;5028439;28;20469;-72
2022/04/20 01:49:03;;;;;;;13.18;3.75;;;;;;;11.64;38.14;101089.09;5028290;28;20079;-72
2022/04/20 01:51:50;;;;;;;10.65;3.80;;;;;;;11.35;38.58;101084.88;5027925;28;20041;-72
2022/04/20 01:54:19;;;;;;;11.23;3.25;;;;;;;11.85;37.75;101080.69;5029087;28;20057;-72
2022/04/20 01:56:47;;;;;;;13.75;3.90;;;;;;;11.15;39.17;101096.81;5027823;28;20128;-72
2022/04/20 01:59:14;;;;;;;14.68;3.78;;;;;;;11.28;38.92;101086.50;5027791;28;20124;-72
2022/04/20 02:04:27;;;;;;;8.88;3.80;;;;;;;10.96;39.66;101085.25;5030197;28;20091;-72
2022/04/20 02:06:53;;;;;;;10.02;3.78;;;;;;;11.13;39.40;101082.69;5029760;28;20177;-71
2022/04/20 02:09:21;;;;;;;6.22;3.30;;;;;;;10.82;39.73;101074.19;5027692;28;20080;-71
2022/04/20 02:11:47;;;;;;;9.52;3.55;;;;;;;10.98;39.64;101075.16;5029603;28;20041;-72
2022/04/20 02:14:14;;;;;;;9.10;3.47;;;;;;;11.14;39.25;101071.81;5028912;28;20136;-71
2022/04/20 02:16:40;;;;;;;8.98;3.70;;;;;;;11.04;39.47;101079.09;5025559;28;20068;-71
2022/04/20 02:19:07;;;;;;;8.32;3.80;;;;;;;11.08;39.72;101071.56;5029481;28;20041;-71
2022/04/20 02:21:33;;;;;;;13.18;3.83;;;;;;;10.86;39.78;101072.88;5023624;28;20069;-71
2022/04/20 02:24:00;;;;;;;10.25;3.75;;;;;;;10.53;40.63;101077.09;5029058;28;20120;-71
2022/04/20 02:26:26;;;;;;;11.45;3.97;;;;;;;10.63;40.40;101073.34;5030176;28;20133;-71
2022/04/20 02:28:53;;;;;;;8.77;4.13;;;;;;;10.57;40.48;101076.63;5028879;28;20076;-71
2022/04/20 02:31:19;;;;;;;8.05;4.00;;;;;;;10.60;40.74;101072.78;5020412;28;20073;-71
2022/04/20 02:33:46;;;;;;;11.57;4.40;;;;;;;10.59;40.73;101085.38;5028240;28;20048;-71
2022/04/20 02:36:12;;;;;;;9.68;3.40;;;;;;;10.85;39.99;101080.09;5029291;28;20049;-72
2022/04/20 02:38:40;;;;;;;9.45;3.70;;;;;;;10.89;40.00;101076.09;5028598;28;20435;-72
2022/04/20 02:41:07;;;;;;;11.05;4.00;;;;;;;11.10;39.78;101069.56;5027078;28;20401;-72
2022/04/20 02:43:34;;;;;;;12.57;3.97;;;;;;;11.03;39.82;101063.97;5029729;28;20163;-71
2022/04/20 02:46:00;;;;;;;11.00;3.75;;;;;;;11.28;39.24;101067.72;5030833;28;20405;-72
2022/04/20 02:48:27;;;;;;;9.18;4.30;;;;;;;11.07;39.62;101064.53;5028249;28;20056;-72
2022/04/20 02:50:53;;;;;;;10.70;3.95;;;;;;;10.81;40.14;101070.66;5034030;28;20073;-71
2022/04/20 02:53:20;;;;;;;9.43;4.28;;;;;;;10.54;41.12;101074.22;5029543;28;20128;-71
2022/04/20 02:55:46;;;;;;;9.98;3.78;;;;;;;10.49;40.97;101065.78;5026275;28;20076;-72
2022/04/20 02:58:14;;;;;;;12.70;3.80;;;;;;;11.12;39.84;101063.03;5030606;28;20148;-72
2022/04/20 03:00:40;;;;;;;8.88;3.65;;;;;;;11.22;39.63;101065.66;5030527;28;20119;-72
2022/04/20 03:03:06;;;;;;;10.13;4.10;;;;;;;11.42;39.14;101061.75;5024319;28;20457;-71
2022/04/20 03:05:33;;;;;;;8.82;3.95;;;;;;;11.35;39.33;101074.13;5030474;28;20041;-71
2022/04/20 03:07:59;;;;;;;9.35;4.13;;;;;;;11.08;40.10;101075.09;5030854;28;20053;-74
2022/04/20 03:10:26;;;;;;;11.48;3.83;;;;;;;10.78;40.58;101086.22;5030150;28;20547;-73
2022/04/20 03:12:52;;;;;;;11.07;3.72;;;;;;;10.94;40.37;101079.16;5030242;28;20125;-73
2022/04/20 03:15:19;;;;;;;9.23;3.55;;;;;;;10.88;40.44;101077.09;5030065;28;20077;-73
2022/04/20 03:17:45;;;;;;;9.93;3.92;;;;;;;11.02;40.25;101067.66;5028947;28;20037;-72
2022/04/20 03:20:12;;;;;;;10.38;4.47;;;;;;;11.40;39.42;101068.28;5030680;28;20105;-72
2022/04/20 03:22:38;;;;;;;10.15;3.60;;;;;;;11.51;39.21;101067.19;5030849;28;20094;-73
2022/04/20 03:25:05;;;;;;;17.67;4.40;;;;;;;11.41;39.62;101067.28;5029993;28;20053;-72
2022/04/20 03:27:32;;;;;;;10.88;4.38;;;;;;;11.04;40.45;101065.66;5031179;28;20053;-73
2022/04/20 03:29:58;;;;;;;15.00;3.83;;;;;;;11.29;39.77;101065.84;5034258;28;20500;-74
2022/04/20 03:32:25;;;;;;;8.60;5.00;;;;;;;11.12;40.24;101072.94;5033480;28;20068;-73
2022/04/20 03:34:51;;;;;;;11.52;4.53;;;;;;;10.72;41.24;101082.28;5032841;28;20041;-74
2022/04/20 03:37:18;;;;;;;9.90;4.60;;;;;;;10.78;41.51;101086.22;5034081;28;20132;-72
2022/04/20 03:39:44;;;;;;;13.20;4.32;;;;;;;11.11;40.50;101082.00;5032359;28;20128;-73
2022/04/20 03:42:11;;;;;;;10.55;4.60;;;;;;;11.17;40.29;101084.03;5033443;28;20042;-72
2022/04/20 03:44:38;;;;;;;11.68;4.85;;;;;;;10.69;41.39;101088.84;5033353;28;20130;-74
2022/04/20 03:47:04;;;;;;;9.70;4.40;;;;;;;10.94;41.02;101087.22;5034869;28;20053;-71
2022/04/20 03:49:31;;;;;;;10.07;4.13;;;;;;;10.66;41.58;101088.28;5033112;28;20041;-70
2022/04/20 03:52:01;;;;;;;14.40;5.40;;;;;;;10.56;41.90;101088.34;5031644;28;20107;-71
2022/04/20 03:54:27;;;;;;;9.43;4.43;;;;;;;10.50;42.41;101084.41;5032419;28;20062;-71
2022/04/20 03:57:07;;;;;;;17.00;4.68;;;;;;;10.60;42.09;101084.38;5033034;28;20132;-71
2022/04/20 03:59:36;;;;;;;11.45;5.22;;;;;;;10.76;41.81;101089.06;5031490;28;20077;-70
2022/04/20 04:02:04;;;;;;;10.32;4.95;;;;;;;10.39;42.49;101087.28;5032385;28;20486;-72
2022/04/20 04:04:32;;;;;;;11.27;5.47;;;;;;;10.38;42.69;101090.97;5032696;28;20156;-71
2022/04/20 04:06:59;;;;;;;10.10;5.35;;;;;;;10.44;42.67;101085.00;5030297;28;20049;-71
2022/04/20 04:09:25;;;;;;;13.40;5.22;;;;;;;10.81;41.90;101093.97;5032091;28;20128;-72
2022/04/20 04:11:52;;;;;;;12.15;5.32;;;;;;;10.50;42.48;101078.22;5032124;28;20073;-71
2022/04/20 04:14:18;;;;;;;12.90;5.07;;;;;;;10.84;41.89;101077.56;5032887;28;20141;-71
2022/04/20 04:16:45;;;;;;;13.88;4.85;;;;;;;10.92;41.88;101077.63;5031822;28;20136;-71
2022/04/20 04:19:11;;;;;;;12.30;5.63;;;;;;;11.16;41.31;101068.94;5032428;28;20068;-71
2022/04/20 04:21:39;;;;;;;11.02;5.95;;;;;;;10.91;41.92;101076.78;5032956;28;20140;-71
2022/04/20 04:24:08;;;;;;;12.13;5.43;;;;;;;11.07;41.77;101080.63;5032026;28;20045;-70
2022/04/20 04:26:35;;;;;;;10.60;5.43;;;;;;;10.72;42.28;101076.94;5032740;28;20065;-72
2022/04/20 04:29:02;;;;;;;9.75;4.53;;;;;;;10.96;42.14;101070.94;5032741;28;20132;-70
2022/04/20 04:31:29;;;;;;;14.02;5.90;;;;;;;11.12;41.75;101070.25;5031642;28;20109;-71
2022/04/20 04:33:55;;;;;;;13.05;6.15;;;;;;;11.08;41.76;101077.78;5031718;28;20132;-71
2022/04/20 04:36:22;;;;;;;13.68;5.40;;;;;;;11.36;41.38;101069.59;5031973;28;20506;-71
2022/04/20 04:38:48;;;;;;;14.48;6.35;;;;;;;11.42;41.11;101068.97;5032165;28;20051;-71
2022/04/20 04:41:15;;;;;;;13.60;6.15;;;;;;;11.36;41.10;101070.44;5031718;28;20124;-71
2022/04/20 04:43:42;;;;;;;16.00;5.65;;;;;;;11.58;40.98;101065.53;5032099;28;20096;-71
2022/04/20 04:48:53;;;;;;;12.75;5.65;;;;;;;11.12;41.90;101054.16;5029423;28;20041;-70
2022/04/20 04:51:20;;;;;;;13.88;6.18;;;;;;;11.56;41.13;101054.13;5030381;28;20480;-70
2022/04/20 04:53:46;;;;;;;11.98;6.10;;;;;;;11.83;40.59;101061.19;5031826;28;20041;-71
2022/04/20 04:56:13;;;;;;;20.95;6.47;;;;;;;11.31;41.42;101072.78;5031289;28;20049;-71
2022/04/20 04:58:39;;;;;;;14.57;5.65;;;;;;;11.40;41.58;101074.50;5030443;28;20128;-71
2022/04/20 05:01:06;;;;;;;13.90;5.47;;;;;;;11.10;41.95;101064.19;5031579;28;20400;-71
2022/04/20 05:03:32;;;;;;;12.30;6.05;;;;;;;10.96;42.56;101074.50;5030870;28;20045;-71
2022/04/20 05:05:58;;;;;;;13.73;6.00;;;;;;;11.01;42.70;101076.72;5031373;28;20478;-70
2022/04/20 05:08:25;;;;;;;12.90;6.15;;;;;;;11.36;42.09;101073.13;5030671;28;20080;-71
2022/04/20 05:10:52;;;;;;;14.45;5.63;;;;;;;11.84;40.89;101070.94;5031250;28;20049;-71
2022/04/20 05:13:19;;;;;;;14.43;5.63;;;;;;;12.11;40.49;101069.91;5031569;28;20136;-71
2022/04/20 05:15:45;;;;;;;13.50;6.68;;;;;;;12.11;40.55;101070.75;5030481;28;20132;-71
2022/04/20 05:18:12;;;;;;;12.48;6.35;;;;;;;12.27;39.81;101064.56;5030381;28;20068;-70
2022/04/20 05:20:39;;;;;;;10.13;5.43;;;;;;;12.23;40.52;101067.75;5031552;28;20128;-71
2022/04/20 05:23:08;;;;;;;16.08;6.15;;;;;;;12.15;40.30;101076.63;5031282;28;20135;-70
2022/04/20 05:25:35;;;;;;;16.15;5.20;;;;;;;12.42;39.86;101080.94;5027039;28;20469;-71
2022/04/20 05:28:05;;;;;;;12.90;5.63;;;;;;;12.25;40.08;101081.91;5034959;28;20154;-71
2022/04/20 05:30:32;;;;;;;17.17;6.60;;;;;;;12.20;40.42;101084.22;5032415;28;20124;-70
2022/04/20 05:32:58;;;;;;;10.43;5.75;;;;;;;12.54;39.39;101076.09;5025474;28;20508;-70
2022/04/20 05:35:25;;;;;;;15.38;5.57;;;;;;;12.84;38.89;101077.38;5021093;28;20513;-70
2022/04/20 05:43:21;;;;;;;14.00;5.88;;;;;;;13.07;38.63;101074.84;5030763;28;20136;-71
2022/04/20 05:45:48;;;;;;;12.68;5.95;;;;;;;12.57;39.26;101078.47;5030345;28;20160;-71
2022/04/20 05:50:55;;;;;;;10.65;5.18;;;;;;;13.14;37.96;101085.78;5067206;22;20223;-71
2022/04/20 05:53:22;;;;;;;8.65;5.13;;;;;;;13.40;37.82;101080.22;5050229;28;20471;-71
2022/04/20 05:55:48;;;;;;;11.10;5.03;;;;;;;13.32;37.67;101075.69;5044590;28;20041;-71
2022/04/20 05:58:14;;;;;;;9.75;5.55;;;;;;;12.90;38.25;101070.44;5049482;28;20124;-71
2022/04/20 06:00:41;;;;;;;11.57;5.57;;;;;;;13.07;37.87;101077.53;5049402;28;20071;-71
2022/04/20 06:03:07;;;;;;;9.00;5.07;;;;;;;12.87;38.07;101072.50;5049981;28;20071;-71
2022/04/20 06:05:34;;;;;;;13.32;5.05;;;;;;;13.14;37.99;101083.09;5050312;28;20064;-71
2022/04/20 06:08:00;;;;;;;9.52;5.18;;;;;;;13.63;37.11;101085.75;5046053;28;20044;-71
2022/04/20 06:10:30;;;;;;;9.80;5.32;;;;;;;12.20;39.67;101087.75;5050801;28;20143;-71
2022/04/20 06:12:56;;;;;;;7.78;5.40;;;;;;;12.07;40.06;101090.03;5049347;28;20131;-71
2022/04/20 06:15:23;;;;;;;10.20;5.90;;;;;;;11.79;40.38;101100.13;5050190;28;20132;-71
2022/04/20 06:17:49;;;;;;;10.55;5.63;;;;;;;12.25;39.93;101096.19;5033139;28;20041;-71
2022/04/20 06:20:16;;;;;;;14.55;5.45;;;;;;;13.11;38.55;101098.59;5035793;28;20634;-71
2022/04/20 06:22:42;;;;;;;11.20;5.30;;;;;;;12.77;38.83;101098.72;5028840;28;20037;-71
2022/04/20 06:25:09;;;;;;;9.77;5.05;;;;;;;13.22;37.90;101096.59;5029398;28;20068;-71
2022/04/20 06:27:36;;;;;;;10.32;5.57;;;;;;;13.06;38.23;101097.41;5030775;28;20045;-71
2022/04/20 06:30:03;;;;;;;12.10;5.72;;;;;;;13.19;38.04;101089.66;5030935;28;20128;-71
2022/04/20 06:32:31;;;;;;;16.60;6.00;;;;;;;12.77;38.73;101089.81;5029737;28;20156;-71
2022/04/20 06:34:58;;;;;;;8.85;5.38;;;;;;;12.89;38.36;101085.78;5047457;28;20052;-71
2022/04/20 06:37:24;;;;;;;12.95;5.47;;;;;;;13.70;37.14;101087.59;5050170;28;20049;-71
2022/04/20 06:39:51;;;;;;;12.57;5.15;;;;;;;14.13;35.84;101081.94;5044124;28;20071;-71
2022/04/20 06:42:21;;;;;;;12.05;5.68;;;;;;;14.30;35.73;101089.78;5050251;28;20098;-71
2022/04/20 06:44:48;;;;;;;12.40;5.50;;;;;;;14.47;35.27;101093.25;5048636;28;20481;-71
2022/04/20 06:47:14;;;;;;;13.02;5.55;;;;;;;14.82;34.93;101093.75;5049795;28;20045;-71
2022/04/20 06:49:42;;;;;;;9.77;5.20;;;;;;;14.95;34.49;101090.44;5049147;28;20076;-71
2022/04/20 07:00:25;;;;;;;11.00;6.13;;;;;;;14.39;34.74;101084.31;5050143;28;20080;-72
2022/04/20 07:03:01;;;;;;;16.23;5.63;;;;;;;14.75;34.22;101079.28;5053204;28;20059;-71
2022/04/20 07:05:27;;;;;;;13.10;7.78;;;;;;;14.85;33.95;101084.44;5054534;28;20080;-71
2022/04/20 07:08:00;;;;;;;7.82;4.38;;;;;;;14.46;34.55;101077.19;5038373;28;20046;-71
2022/04/20 07:10:31;;;;;;;12.35;6.55;;;;;;;15.47;32.78;101068.88;5033670;28;21208;-70
2022/04/20 07:12:57;;;;;;;8.85;5.30;;;;;;;14.49;34.04;101072.28;5033878;28;20122;-70
2022/04/20 07:15:25;;;;;;;9.23;5.07;;;;;;;14.73;33.87;101076.72;5034906;28;20080;-72
2022/04/20 07:17:51;;;;;;;10.38;5.53;;;;;;;13.90;34.88;101071.88;5034643;28;20069;-70
2022/04/20 07:20:18;;;;;;;9.95;4.88;;;;;;;14.27;34.48;101087.44;5042609;28;20104;-71
2022/04/20 07:22:47;;;;;;;12.77;6.20;;;;;;;13.76;35.32;101088.78;5040267;28;20139;-71
2022/04/20 07:25:15;;;;;;;9.57;4.22;;;;;;;13.65;35.15;101084.56;5054054;28;20128;-71
2022/04/20 07:27:43;;;;;;;8.00;5.10;;;;;;;13.68;35.19;101086.91;5041056;28;20064;-71
2022/04/20 07:30:10;;;;;;;7.68;4.50;;;;;;;13.09;36.01;101086.31;5034431;28;20071;-71
2022/04/20 07:32:36;;;;;;;9.43;4.03;;;;;;;13.04;35.96;101084.13;5035000;28;20049;-70
2022/04/20 07:35:03;;;;;;;9.90;4.80;;;;;;;13.20;35.83;101080.56;5037970;28;20152;-71
2022/04/20 07:37:31;;;;;;;9.30;4.95;;;;;;;13.52;35.35;101086.94;5054825;28;20052;-70
2022/04/20 07:39:57;;;;;;;11.05;4.88;;;;;;;12.72;36.73;101089.41;5053155;28;20060;-72
2022/04/20 07:42:24;;;;;;;13.75;5.35;;;;;;;13.16;36.10;101089.16;5053477;28;20064;-71
2022/04/20 07:44:54;;;;;;;9.15;4.57;;;;;;;13.37;35.82;101088.66;5052218;28;20569;-71
2022/04/20 07:47:24;;;;;;;7.10;4.15;;;;;;;13.30;35.62;101094.72;5053217;28;20526;-70
2022/04/20 07:52:45;;;;;;;8.30;3.65;;;;;;;12.61;36.71;101090.56;5045106;28;20084;-70
2022/04/20 07:55:14;;;;;;;12.85;4.35;;;;;;;12.68;36.70;101091.59;5032147;28;20049;-73
2022/04/20 07:57:44;;;;;;;7.47;3.72;;;;;;;13.26;35.65;101096.06;5046614;28;20064;-77
2022/04/20 08:00:13;;;;;;;6.13;3.90;;;;;;;13.11;35.50;101089.66;5046627;28;20057;-78
2022/04/20 08:02:41;;;;;;;8.65;3.83;;;;;;;13.57;34.87;101089.97;5055571;28;20047;-77
2022/04/20 08:05:09;;;;;;;9.20;3.90;;;;;;;13.51;34.49;101091.50;5055456;28;20045;-77
2022/04/20 08:07:35;;;;;;;13.07;4.60;;;;;;;14.23;33.44;101094.19;5034889;28;20112;-77
2022/04/20 08:10:06;;;;;;;16.77;3.38;;;;;;;14.33;32.36;101085.06;5042812;28;20065;-77
2022/04/20 08:12:38;;;;;;;11.45;4.32;;;;;;;15.33;30.68;101094.03;5034395;28;20046;-77
2022/04/20 08:15:07;;;;;;;7.70;4.22;;;;;;;16.16;29.85;101078.63;5046010;28;20051;-77
2022/04/20 08:17:35;;;;;;;8.65;3.90;;;;;;;15.33;30.26;101094.03;5054182;28;20044;-75
2022/04/20 08:20:07;;;;;;;7.70;3.60;;;;;;;15.28;29.33;101093.72;5047041;28;20460;-77
2022/04/20 08:22:41;;;;;;;9.90;3.95;;;;;;;15.15;29.60;101091.63;5047730;28;20041;-76
2022/04/20 08:25:12;;;;;;;8.90;3.70;;;;;;;14.63;30.31;101094.16;5034557;28;20107;-76
2022/04/20 08:27:39;;;;;;;9.00;3.88;;;;;;;15.36;29.37;101081.97;5036910;28;20099;-76
2022/04/20 08:30:10;;;;;;;5.30;3.38;;;;;;;15.94;28.78;101078.53;5053361;28;20061;-76
2022/04/20 08:32:38;;;;;;;6.68;3.10;;;;;;;15.61;28.95;101080.75;5053256;28;20049;-77
2022/04/20 08:35:05;;;;;;;5.05;3.15;;;;;;;15.31;28.75;101079.00;5042217;28;20040;-76
2022/04/20 08:37:32;;;;;;;6.47;2.97;;;;;;;15.68;28.00;101080.88;5043211;28;20124;-77
2022/04/20 08:39:58;;;;;;;7.88;2.78;;;;;;;15.33;28.05;101079.66;5044434;28;20542;-76
2022/04/20 08:44:56;;;;;;;12.93;3.00;;;;;;;15.06;28.16;101073.81;5068187;28;20048;-77
2022/04/20 08:47:23;;;;;;;7.35;2.38;;;;;;;15.21;27.45;101077.38;5076466;28;20067;-76
2022/04/20 08:49:51;;;;;;;5.90;2.35;;;;;;;15.44;27.20;101071.13;5072401;28;20048;-76
2022/04/20 08:52:39;;;;;;;4.38;2.40;;;;;;;15.16;27.39;101068.16;5071981;28;20102;-76
2022/04/20 08:55:10;;;;;;;11.95;2.60;;;;;;;15.11;27.57;101068.69;5072404;28;20062;-76
2022/04/20 08:57:38;;;;;;;5.47;2.47;;;;;;;14.52;27.98;101065.69;5070874;28;20064;-75
2022/04/20 09:00:11;;;;;;;3.97;2.45;;;;;;;14.73;28.04;101073.19;5071830;28;20099;-76
2022/04/20 09:02:38;;;;;;;7.80;2.75;;;;;;;14.66;28.20;101072.19;5070089;28;20050;-77
2022/04/20 09:05:06;;;;;;;8.05;2.58;;;;;;;14.40;28.43;101081.47;5071786;28;20473;-76
2022/04/20 09:07:34;;;;;;;8.73;2.40;;;;;;;14.63;28.42;101086.06;5071399;28;20064;-76
2022/04/20 09:10:03;;;;;;;11.52;2.20;;;;;;;13.71;30.03;101086.56;5072134;28;20075;-75
2022/04/20 09:12:29;;;;;;;4.47;2.53;;;;;;;13.67;30.56;101076.31;5071192;28;20128;-76
2022/04/20 09:14:56;;;;;;;7.20;2.25;;;;;;;12.88;31.85;101081.41;5071141;28;20551;-75
2022/04/20 09:17:26;;;;;;;12.00;2.47;;;;;;;13.52;31.55;101078.84;5070534;28;20087;-76
2022/04/20 09:19:56;;;;;;;5.72;2.33;;;;;;;13.57;31.75;101081.91;5070666;28;20044;-75
2022/04/20 09:22:29;;;;;;;8.65;2.65;;;;;;;14.11;31.56;101084.78;5071079;28;20127;-75
2022/04/20 09:25:14;;;;;;;5.15;2.80;;;;;;;14.15;32.55;101087.97;5071157;28;20044;-76
2022/04/20 09:27:42;;;;;;;7.32;2.30;;;;;;;13.78;32.82;101094.84;5070586;28;20124;-75
2022/04/20 09:30:14;;;;;;;6.55;2.58;;;;;;;13.83;33.63;101096.00;5071252;28;20044;-75
2022/04/20 09:32:43;;;;;;;8.25;2.35;;;;;;;13.95;33.55;101092.97;5070994;28;20119;-75
2022/04/20 09:35:13;;;;;;;8.88;2.55;;;;;;;14.26;32.79;101096.56;5071743;28;20119;-75
2022/04/20 09:37:41;;;;;;;7.63;2.58;;;;;;;14.28;33.09;101094.50;5072018;28;20460;-75
2022/04/20 09:40:11;;;;;;;11.25;3.20;;;;;;;14.08;33.38;101093.25;5070105;28;20139;-75
2022/04/20 09:43:03;;;;;;;7.32;2.42;;;;;;;13.33;34.97;101093.53;5067052;28;20507;-75
2022/04/20 09:45:30;;;;;;;6.20;2.75;;;;;;;13.76;35.33;101097.72;5070081;28;20052;-75
2022/04/20 09:50:43;;;;;;;7.45;2.58;;;;;;;14.08;35.30;101087.00;5050565;28;20451;-75
2022/04/20 09:53:12;;;;;;;11.38;2.50;;;;;;;12.61;37.38;101085.19;5051382;28;20041;-75
2022/04/20 09:55:41;;;;;;;8.35;3.30;;;;;;;12.76;37.83;101085.41;5052713;28;20048;-75
2022/04/20 09:58:17;;;;;;;5.68;2.25;;;;;;;12.31;37.99;101086.59;5063071;28;20060;-75
2022/04/20 10:00:51;;;;;;;12.77;3.03;;;;;;;12.46;37.73;101079.59;5067020;28;20063;-75
2022/04/20 10:03:29;;;;;;;7.65;2.90;;;;;;;12.70;37.07;101086.06;5061514;28;20166;-76
2022/04/20 10:05:56;;;;;;;3.53;2.28;;;;;;;13.30;35.87;101083.94;5072011;28;20123;-76
2022/04/20 10:08:23;;;;;;;4.30;2.70;;;;;;;13.52;35.58;101084.25;5071672;28;20103;-75
2022/04/20 10:10:52;;;;;;;11.85;3.10;;;;;;;13.14;36.58;101081.22;5071452;28;20404;-75
2022/04/20 10:13:20;;;;;;;11.25;2.75;;;;;;;12.89;36.75;101080.38;5071874;28;20106;-76
2022/04/20 10:16:07;;;;;;;4.45;2.92;;;;;;;13.40;36.32;101080.22;5072473;28;20131;-75
2022/04/20 10:18:37;;;;;;;7.35;2.75;;;;;;;13.93;35.53;101078.78;5071680;28;20052;-75
2022/04/20 10:21:11;;;;;;;8.05;3.00;;;;;;;13.39;35.97;101081.22;5070505;28;20068;-75
2022/04/20 10:23:45;;;;;;;7.80;2.65;;;;;;;12.81;37.66;101072.31;5072229;28;20068;-75
2022/04/20 10:26:12;;;;;;;6.70;2.70;;;;;;;13.23;37.35;101068.63;5065631;28;20127;-75
2022/04/20 10:28:51;;;;;;;6.13;3.17;;;;;;;13.38;36.55;101071.47;5070839;28;20075;-75
2022/04/20 10:31:28;;;;;;;8.50;3.13;;;;;;;13.14;37.40;101067.75;5070473;28;20068;-75
2022/04/20 10:33:56;;;;;;;6.35;3.05;;;;;;;13.44;36.90;101062.69;5071748;28;20044;-75
2022/04/20 10:36:33;;;;;;;11.40;3.17;;;;;;;13.77;36.37;101061.66;5071682;28;20079;-75
2022/04/20 10:39:37;;;;;;;5.75;2.75;;;;;;;13.63;36.29;101048.00;5075025;28;20083;-76
2022/04/20 10:42:14;;;;;;;4.35;2.60;;;;;;;14.33;35.55;101045.41;5067678;28;20044;-75
2022/04/20 10:45:01;;;;;;;8.82;3.03;;;;;;;14.50;35.13;101035.38;5072735;28;20043;-75
2022/04/20 10:47:30;;;;;;;18.30;4.63;;;;;;;14.59;34.91;101030.72;5079503;28;20041;-75
2022/04/20 10:50:16;;;;;;;13.73;3.70;;;;;;;15.07;33.77;101017.91;5075148;28;20043;-75
2022/04/20 10:53:08;;;;;;;4.22;2.38;;;;;;;14.27;35.34;101011.03;5076220;28;20115;-75
2022/04/20 10:55:35;;;;;;;7.28;2.58;;;;;;;14.83;34.29;100995.47;5074843;28;20044;-76
2022/04/20 10:58:04;;;;;;;4.65;2.42;;;;;;;15.19;33.88;101000.22;5074427;28;20048;-75
2022/04/20 11:00:35;;;;;;;4.07;2.10;;;;;;;15.66;32.59;100999.91;5065927;28;20056;-76
2022/04/20 11:03:06;;;;;;;5.03;2.35;;;;;;;15.33;33.32;101002.13;5075269;28;20041;-75
2022/04/20 11:05:49;;;;;;;5.63;3.40;;;;;;;15.29;34.19;100989.13;5067788;28;20131;-75
2022/04/20 11:08:16;;;;;;;4.45;2.33;;;;;;;15.92;33.75;100987.78;5074030;28;20044;-75
2022/04/20 11:19:09;;;;;;;5.78;2.33;;;;;;;15.64;34.14;100974.94;5074225;28;20480;-75
2022/04/20 11:21:37;;;;;;;5.03;2.50;;;;;;;16.12;33.95;100982.59;5074188;28;20489;-75
2022/04/20 11:24:06;;;;;;;7.20;2.25;;;;;;;16.06;33.95;100970.66;5074462;28;20452;-75
2022/04/20 11:26:34;;;;;;;3.90;2.30;;;;;;;16.22;33.54;100977.69;5072974;28;20052;-75
2022/04/20 11:29:08;;;;;;;12.02;2.30;;;;;;;15.67;34.74;100981.81;5074668;28;20094;-75
2022/04/20 11:31:37;;;;;;;7.00;3.17;;;;;;;15.54;34.15;100982.47;5073970;28;20457;-76
2022/04/20 11:34:05;;;;;;;9.48;2.88;;;;;;;15.96;32.61;100980.94;5073324;28;20393;-76
2022/04/20 11:36:38;;;;;;;4.43;2.33;;;;;;;16.28;32.64;100986.94;5073682;28;20079;-76
2022/04/20 11:39:05;;;;;;;4.40;2.30;;;;;;;15.88;33.53;100990.03;5073051;28;20047;-76
2022/04/20 11:41:33;;;;;;;7.85;2.72;;;;;;;16.09;32.65;100991.94;5073395;28;20131;-75
2022/04/20 11:44:01;;;;;;;6.85;2.50;;;;;;;16.15;32.93;100977.63;5073725;28;20048;-76
2022/04/20 11:46:28;;;;;;;7.03;2.33;;;;;;;15.86;33.78;100962.31;5073522;28;20550;-75
2022/04/20 11:49:00;;;;;;;6.22;2.20;;;;;;;16.03;33.64;100945.84;5074333;28;20048;-75
2022/04/20 11:51:31;;;;;;;12.52;2.45;;;;;;;16.60;32.57;100953.97;5073474;28;20052;-76
2022/04/20 11:54:00;;;;;;;6.60;2.65;;;;;;;16.43;32.54;100947.09;5074049;28;20045;-76
2022/04/20 11:56:39;;;;;;;9.93;2.60;;;;;;;16.52;32.55;100950.56;5073874;28;20052;-76
2022/04/20 11:59:07;;;;;;;6.55;2.47;;;;;;;16.16;33.11;100959.53;5073207;28;20438;-75
2022/04/20 12:01:36;;;;;;;5.90;2.63;;;;;;;16.56;32.28;100947.25;5074043;28;20044;-76
2022/04/20 12:04:14;;;;;;;7.78;2.60;;;;;;;15.40;34.04;100942.75;5074078;28;20392;-76
2022/04/20 12:06:55;;;;;;;7.13;3.72;;;;;;;16.62;31.99;100943.78;5073958;28;20090;-76